createdAt,value
2023-05-22T00:01:39.116Z,3.67
2023-05-22T00:04:05.711Z,3.72
2023-05-22T00:06:34.046Z,4.55
2023-05-22T00:09:00.879Z,3.83
2023-05-22T00:11:27.592Z,4.60
2023-05-22T00:13:54.199Z,4.35
2023-05-22T00:16:21.040Z,4.32
2023-05-22T00:18:48.312Z,4.43
2023-05-22T00:21:14.940Z,4.53
2023-05-22T00:23:41.575Z,3.45
2023-05-22T00:26:08.179Z,4.20
2023-05-22T00:28:34.752Z,3.58
2023-05-22T00:31:01.390Z,3.80
2023-05-22T00:33:27.997Z,4.68
2023-05-22T00:35:54.674Z,4.70
2023-05-22T00:38:32.917Z,3.85
2023-05-22T00:41:04.609Z,3.97
2023-05-22T00:43:31.398Z,4.18
2023-05-22T00:45:58.203Z,4.00
2023-05-22T00:48:25.311Z,3.92
2023-05-22T00:50:54.325Z,3.83
2023-05-22T00:53:22.298Z,4.18
2023-05-22T00:55:49.358Z,4.38
2023-05-22T00:58:18.576Z,4.80
2023-05-22T01:00:46.769Z,4.60
2023-05-22T01:03:14.593Z,4.20
2023-05-22T01:05:42.225Z,4.18
2023-05-22T01:08:09.533Z,4.40
2023-05-22T01:10:38.975Z,4.75
2023-05-22T01:13:11.730Z,3.05
2023-05-22T01:15:53.246Z,2.70
2023-05-22T01:18:30.237Z,2.25
2023-05-22T01:21:04.448Z,2.63
2023-05-22T01:23:59.488Z,2.80
2023-05-22T01:26:54.073Z,4.53
2023-05-22T01:29:35.755Z,4.78
2023-05-22T01:32:04.299Z,4.82
2023-05-22T01:34:34.210Z,4.65
2023-05-22T01:37:02.102Z,5.45
2023-05-22T01:39:29.529Z,5.20
2023-05-22T01:41:56.359Z,5.30
2023-05-22T01:44:23.629Z,4.97
2023-05-22T01:46:50.189Z,4.57
2023-05-22T01:49:16.856Z,3.92
2023-05-22T01:51:57.655Z,3.47
2023-05-22T01:54:39.222Z,3.75
2023-05-22T01:57:28.839Z,5.53
2023-05-22T02:00:09.893Z,5.28
2023-05-22T02:02:38.640Z,5.43
2023-05-22T02:05:06.650Z,4.82
2023-05-22T02:07:38.260Z,4.32
2023-05-22T02:10:07.198Z,3.30
2023-05-22T02:12:34.735Z,2.78
2023-05-22T02:15:01.872Z,3.40
2023-05-22T02:17:28.414Z,3.40
2023-05-22T02:19:54.986Z,3.58
2023-05-22T02:22:21.918Z,4.20
2023-05-22T02:24:50.056Z,4.45
2023-05-22T02:27:17.347Z,4.38
2023-05-22T02:29:43.970Z,3.45
2023-05-22T02:32:10.840Z,3.70
2023-05-22T02:34:38.056Z,4.07
2023-05-22T02:37:04.893Z,4.43
2023-05-22T02:39:31.414Z,3.85
2023-05-22T02:41:57.956Z,3.10
2023-05-22T02:44:24.506Z,2.97
2023-05-22T02:46:51.106Z,2.65
2023-05-22T02:49:17.650Z,2.55
2023-05-22T02:51:47.644Z,4.03
2023-05-22T02:54:16.185Z,4.80
2023-05-22T02:56:44.086Z,4.70
2023-05-22T02:59:10.899Z,4.82
2023-05-22T03:01:38.804Z,3.28
2023-05-22T03:04:06.604Z,3.08
2023-05-22T03:06:34.332Z,4.18
2023-05-22T03:09:01.241Z,5.13
2023-05-22T03:11:27.809Z,5.03
2023-05-22T03:13:54.464Z,4.72
2023-05-22T03:16:21.081Z,4.82
2023-05-22T03:18:47.901Z,5.35
2023-05-22T03:21:14.502Z,4.88
2023-05-22T03:23:41.053Z,4.97
2023-05-22T03:26:07.671Z,5.88
2023-05-22T03:28:34.300Z,3.75
2023-05-22T03:31:01.136Z,3.20
2023-05-22T03:33:27.710Z,3.33
2023-05-22T03:35:54.297Z,4.00
2023-05-22T03:38:20.838Z,4.70
2023-05-22T03:40:47.493Z,4.47
2023-05-22T03:43:14.069Z,4.25
2023-05-22T03:45:40.816Z,5.00
2023-05-22T03:48:07.483Z,2.90
2023-05-22T03:50:34.076Z,3.55
2023-05-22T03:53:01.220Z,3.47
2023-05-22T03:55:27.777Z,4.80
2023-05-22T03:57:54.352Z,5.15
2023-05-22T04:00:21.205Z,4.63
2023-05-22T04:02:47.900Z,3.78
2023-05-22T04:05:14.603Z,4.47
2023-05-22T04:07:41.213Z,5.25
2023-05-22T04:10:08.328Z,4.93
2023-05-22T04:12:35.106Z,4.78
2023-05-22T04:15:01.907Z,5.10
2023-05-22T04:17:33.412Z,3.70
2023-05-22T04:20:00.655Z,4.82
2023-05-22T04:22:27.884Z,4.32
2023-05-22T04:24:54.479Z,4.82
2023-05-22T04:27:22.658Z,4.10
2023-05-22T04:29:50.395Z,4.90
2023-05-22T04:32:18.562Z,4.43
2023-05-22T04:34:47.637Z,5.70
2023-05-22T04:37:15.182Z,4.20
2023-05-22T04:39:41.745Z,4.70
2023-05-22T04:42:09.424Z,3.95
2023-05-22T04:44:35.959Z,3.58
2023-05-22T04:47:02.983Z,3.53
2023-05-22T04:49:30.568Z,4.35
2023-05-22T04:52:04.709Z,3.97
2023-05-22T04:54:31.889Z,3.50
2023-05-22T04:56:58.460Z,2.70
2023-05-22T04:59:26.527Z,2.42
2023-05-22T05:01:53.079Z,3.63
2023-05-22T05:04:19.629Z,3.28
2023-05-22T05:06:46.725Z,4.03
2023-05-22T05:09:13.381Z,3.35
2023-05-22T05:11:39.929Z,3.45
2023-05-22T05:14:06.575Z,3.10
2023-05-22T05:16:33.276Z,3.53
2023-05-22T05:18:59.873Z,3.88
2023-05-22T05:21:28.020Z,3.17
2023-05-22T05:23:54.747Z,3.50
2023-05-22T05:26:21.939Z,3.00
2023-05-22T05:28:49.413Z,3.53
2023-05-22T05:31:16.048Z,2.97
2023-05-22T05:33:42.597Z,2.80
2023-05-22T05:36:09.170Z,3.40
2023-05-22T05:38:36.218Z,2.88
2023-05-22T05:41:02.855Z,3.65
2023-05-22T05:43:29.702Z,3.88
2023-05-22T05:45:57.236Z,3.88
2023-05-22T05:48:23.803Z,3.88
2023-05-22T05:50:50.345Z,2.95
2023-05-22T05:53:17.023Z,3.10
2023-05-22T05:55:43.894Z,4.18
2023-05-22T05:58:10.454Z,3.08
2023-05-22T06:00:38.318Z,3.40
2023-05-22T06:03:05.205Z,3.15
2023-05-22T06:05:31.898Z,3.80
2023-05-22T06:07:58.903Z,4.10
2023-05-22T06:10:25.569Z,3.72
2023-05-22T06:12:52.128Z,3.50
2023-05-22T06:15:19.259Z,3.40
2023-05-22T06:17:45.886Z,3.22
2023-05-22T06:20:14.200Z,3.70
2023-05-22T06:22:40.949Z,2.80
2023-05-22T06:25:08.048Z,3.25
2023-05-22T06:27:34.607Z,3.50
2023-05-22T06:30:02.443Z,4.00
2023-05-22T06:32:31.247Z,4.00
2023-05-22T06:34:57.992Z,4.03
2023-05-22T06:37:24.567Z,3.92
2023-05-22T06:39:51.185Z,4.28
2023-05-22T06:42:17.802Z,3.60
2023-05-22T06:44:44.469Z,3.80
2023-05-22T06:47:11.430Z,3.55
2023-05-22T06:49:37.948Z,3.97
2023-05-22T06:52:05.515Z,3.97
2023-05-22T06:54:32.147Z,3.60
2023-05-22T06:56:59.529Z,3.70
2023-05-22T06:59:26.292Z,3.95
2023-05-22T07:01:52.872Z,3.53
2023-05-22T07:04:19.397Z,3.45
2023-05-22T07:06:46.300Z,3.90
2023-05-22T07:09:13.907Z,3.80
2023-05-22T07:11:42.791Z,3.72
2023-05-22T07:14:09.944Z,4.00
2023-05-22T07:16:37.235Z,4.20
2023-05-22T07:19:03.985Z,4.05
2023-05-22T07:21:35.481Z,3.63
2023-05-22T07:24:08.499Z,4.38
2023-05-22T07:26:36.138Z,3.92
2023-05-22T07:29:03.746Z,4.07
2023-05-22T07:31:31.618Z,4.28
2023-05-22T07:33:58.212Z,3.63
2023-05-22T07:36:24.766Z,3.30
2023-05-22T07:38:51.367Z,3.70
2023-05-22T07:41:18.127Z,3.72
2023-05-22T07:43:44.876Z,3.10
2023-05-22T07:46:11.733Z,3.13
2023-05-22T07:48:38.449Z,3.40
2023-05-22T07:51:05.236Z,3.28
2023-05-22T07:53:31.848Z,3.20
2023-05-22T07:55:58.561Z,3.42
2023-05-22T07:58:25.432Z,2.90
2023-05-22T08:00:52.339Z,3.63
2023-05-22T08:03:19.601Z,2.85
2023-05-22T08:05:47.807Z,2.83
2023-05-22T08:08:14.472Z,3.50
2023-05-22T08:10:58.152Z,2.70
2023-05-22T08:13:27.834Z,2.60
2023-05-22T08:16:00.280Z,2.60
2023-05-22T08:18:29.068Z,2.50
2023-05-22T08:20:56.289Z,2.42
2023-05-22T08:23:22.974Z,2.88
2023-05-22T08:25:50.336Z,2.50
2023-05-22T08:28:17.325Z,1.98
2023-05-22T08:30:44.109Z,2.42
2023-05-22T08:33:11.859Z,2.15
2023-05-22T08:35:38.672Z,2.55
2023-05-22T08:38:05.259Z,2.42
2023-05-22T08:40:37.727Z,1.92
2023-05-22T08:43:05.441Z,1.85
2023-05-22T08:45:36.983Z,2.60
2023-05-22T08:48:05.974Z,2.15
2023-05-22T08:50:34.860Z,2.00
2023-05-22T08:53:04.419Z,2.03
2023-05-22T08:55:31.171Z,1.88
2023-05-22T08:57:58.482Z,1.98
2023-05-22T09:00:25.451Z,2.53
2023-05-22T09:02:53.103Z,1.70
2023-05-22T09:05:19.842Z,2.30
2023-05-22T09:07:48.843Z,2.17
2023-05-22T09:10:15.444Z,2.05
2023-05-22T09:13:00.771Z,2.60
2023-05-22T09:15:30.493Z,2.20
2023-05-22T09:17:57.249Z,2.25
2023-05-22T09:20:23.942Z,2.30
2023-05-22T09:22:50.753Z,2.45
2023-05-22T09:25:21.351Z,1.95
2023-05-22T09:27:51.094Z,2.08
2023-05-22T09:30:18.617Z,2.00
2023-05-22T09:32:46.816Z,1.98
2023-05-22T09:35:14.365Z,1.90
2023-05-22T09:37:41.339Z,2.10
2023-05-22T09:40:13.759Z,2.00
2023-05-22T09:42:44.830Z,1.98
2023-05-22T09:45:11.840Z,2.08
2023-05-22T09:47:38.870Z,2.00
2023-05-22T09:50:07.459Z,1.80
2023-05-22T09:52:35.722Z,2.15
2023-05-22T09:55:04.663Z,2.40
2023-05-22T09:57:36.294Z,2.13
2023-05-22T10:00:06.461Z,2.30
2023-05-22T10:02:33.513Z,2.30
2023-05-22T10:05:00.778Z,2.20
2023-05-22T10:07:37.593Z,1.98
2023-05-22T10:10:07.763Z,1.98
2023-05-22T10:12:42.428Z,2.00
2023-05-22T10:15:11.089Z,2.20
2023-05-22T10:17:39.617Z,2.13
2023-05-22T10:20:08.485Z,1.70
2023-05-22T10:22:37.280Z,2.10
2023-05-22T10:25:05.644Z,2.10
2023-05-22T10:27:32.701Z,2.28
2023-05-22T10:30:24.467Z,1.85
2023-05-22T10:32:57.909Z,2.10
2023-05-22T10:35:50.260Z,2.20
2023-05-22T10:38:25.870Z,1.92
2023-05-22T10:40:53.000Z,1.88
2023-05-22T10:43:21.546Z,2.22
2023-05-22T10:45:48.367Z,2.30
2023-05-22T10:48:16.012Z,2.00
2023-05-22T10:50:51.221Z,2.63
2023-05-22T10:53:23.061Z,2.20
2023-05-22T10:55:54.361Z,2.13
2023-05-22T10:58:31.864Z,2.40
2023-05-22T11:01:07.392Z,2.03
2023-05-22T11:03:53.526Z,1.95
2023-05-22T11:06:41.618Z,2.17
2023-05-22T11:09:30.957Z,1.92
2023-05-22T11:12:24.785Z,2.60
2023-05-22T11:14:59.347Z,2.58
2023-05-22T11:17:31.175Z,1.80
2023-05-22T11:19:59.952Z,2.30
2023-05-22T11:22:35.006Z,2.00
2023-05-22T11:25:05.222Z,1.92
2023-05-22T11:27:31.979Z,2.15
2023-05-22T11:30:00.174Z,2.00
2023-05-22T11:32:27.340Z,2.38
2023-05-22T11:34:55.221Z,1.98
2023-05-22T11:37:22.498Z,2.22
2023-05-22T11:40:00.930Z,1.95
2023-05-22T11:42:27.507Z,1.83
2023-05-22T11:44:54.113Z,1.90
2023-05-22T11:47:20.766Z,2.03
2023-05-22T11:49:47.325Z,2.08
2023-05-22T11:52:16.293Z,2.10
2023-05-22T11:54:47.248Z,2.00
2023-05-22T11:57:15.294Z,1.88
2023-05-22T11:59:48.465Z,1.92
2023-05-22T12:02:19.171Z,1.77
2023-05-22T12:04:46.471Z,2.00
2023-05-22T12:07:13.127Z,2.10
2023-05-22T12:09:40.640Z,2.38
2023-05-22T12:12:10.182Z,2.13
2023-05-22T12:14:37.042Z,2.08
2023-05-22T12:17:06.717Z,2.30
2023-05-22T12:19:33.342Z,2.13
2023-05-22T12:21:59.936Z,2.50
2023-05-22T12:24:26.576Z,1.90
2023-05-22T12:26:53.967Z,2.15
2023-05-22T12:29:23.578Z,2.53
2023-05-22T12:31:50.222Z,2.00
2023-05-22T12:34:18.614Z,1.92
2023-05-22T12:36:46.964Z,1.88
2023-05-22T12:39:18.197Z,2.03
2023-05-22T12:41:45.887Z,2.45
2023-05-22T12:44:14.962Z,2.05
2023-05-22T12:46:41.854Z,2.47
2023-05-22T12:49:09.016Z,2.25
2023-05-22T12:51:35.674Z,1.90
2023-05-22T12:54:02.978Z,2.20
2023-05-22T12:56:30.821Z,2.33
2023-05-22T12:58:58.115Z,2.00
2023-05-22T13:01:25.646Z,1.98
2023-05-22T13:03:52.440Z,2.10
2023-05-22T13:06:19.748Z,1.98
2023-05-22T13:08:46.461Z,1.83
2023-05-22T13:11:13.089Z,1.92
2023-05-22T13:13:39.982Z,1.85
2023-05-22T13:16:06.594Z,2.00
2023-05-22T13:18:33.186Z,2.20
2023-05-22T13:21:00.714Z,1.95
2023-05-22T13:23:27.417Z,2.45
2023-05-22T13:25:54.041Z,2.17
2023-05-22T13:28:21.123Z,2.00
2023-05-22T13:30:47.664Z,1.98
2023-05-22T13:33:14.209Z,2.00
2023-05-22T13:35:41.007Z,1.98
2023-05-22T13:38:07.837Z,2.08
2023-05-22T13:40:34.436Z,2.15
2023-05-22T13:43:01.175Z,2.40
2023-05-22T13:45:27.874Z,2.20
2023-05-22T13:47:54.603Z,2.20
2023-05-22T13:50:21.220Z,1.83
2023-05-22T13:52:47.843Z,1.90
2023-05-22T13:55:14.495Z,2.00
2023-05-22T13:57:41.333Z,2.10
2023-05-22T14:00:11.505Z,2.00
2023-05-22T14:02:38.543Z,1.63
2023-05-22T14:05:05.780Z,1.85
2023-05-22T14:07:32.438Z,1.80
2023-05-22T14:10:01.198Z,2.00
2023-05-22T14:12:28.244Z,2.00
2023-05-22T14:14:54.827Z,1.98
2023-05-22T14:17:21.467Z,1.98
2023-05-22T14:19:48.059Z,2.03
2023-05-22T14:22:14.605Z,1.75
2023-05-22T14:24:41.510Z,2.20
2023-05-22T14:27:08.094Z,1.77
2023-05-22T14:29:34.731Z,2.08
2023-05-22T14:32:04.255Z,2.47
2023-05-22T14:34:31.139Z,2.22
2023-05-22T14:36:58.449Z,2.25
2023-05-22T14:39:25.893Z,2.20
2023-05-22T14:41:55.547Z,1.80
2023-05-22T14:44:25.243Z,1.90
2023-05-22T14:46:53.491Z,1.70
2023-05-22T14:49:20.399Z,2.20
2023-05-22T14:51:48.240Z,1.80
2023-05-22T14:54:17.834Z,2.05
2023-05-22T14:56:45.148Z,2.00
2023-05-22T14:59:12.095Z,2.08
2023-05-22T15:01:39.304Z,2.00
2023-05-22T15:04:06.400Z,2.08
2023-05-22T15:06:33.045Z,2.00
2023-05-22T15:08:59.619Z,2.10
2023-05-22T15:11:26.614Z,1.80
2023-05-22T15:13:56.246Z,1.52
2023-05-22T15:16:23.192Z,1.90
2023-05-22T15:18:49.831Z,1.85
2023-05-22T15:21:16.933Z,1.70
2023-05-22T15:23:43.535Z,1.65
2023-05-22T15:26:10.411Z,1.80
2023-05-22T15:28:37.051Z,1.73
2023-05-22T15:31:03.599Z,1.75
2023-05-22T15:33:30.269Z,1.90
2023-05-22T15:35:56.839Z,1.77
2023-05-22T15:38:23.385Z,2.00
2023-05-22T15:40:50.028Z,1.73
2023-05-22T15:43:16.660Z,2.05
2023-05-22T15:45:47.025Z,1.90
2023-05-22T15:48:13.775Z,1.70
2023-05-22T15:50:40.715Z,1.90
2023-05-22T15:53:07.332Z,2.05
2023-05-22T15:55:34.457Z,2.40
2023-05-22T15:58:02.705Z,1.98
2023-05-22T16:00:29.293Z,2.30
2023-05-22T16:02:55.998Z,1.92
2023-05-22T16:05:22.686Z,1.90
2023-05-22T16:07:49.245Z,1.80
2023-05-22T16:10:15.875Z,1.90
2023-05-22T16:12:42.412Z,1.92
2023-05-22T16:15:09.499Z,1.80
2023-05-22T16:17:36.221Z,1.83
2023-05-22T16:20:04.695Z,1.60
2023-05-22T16:22:44.216Z,1.90
2023-05-22T16:27:44.588Z,1.80
2023-05-22T16:30:12.157Z,1.50
2023-05-22T16:32:39.087Z,1.63
2023-05-22T16:35:06.147Z,1.58
2023-05-22T16:37:33.808Z,1.52
2023-05-22T16:40:00.586Z,1.40
2023-05-22T16:42:27.288Z,1.60
2023-05-22T16:44:53.988Z,1.58
2023-05-22T16:47:21.833Z,1.50
2023-05-22T16:49:50.330Z,1.35
2023-05-22T16:52:18.056Z,1.60
2023-05-22T16:54:44.665Z,1.80
2023-05-22T16:57:11.210Z,1.60
2023-05-22T16:59:37.836Z,1.48
2023-05-22T17:02:04.887Z,1.50
2023-05-22T17:04:31.485Z,1.67
2023-05-22T17:06:58.132Z,1.70
2023-05-22T17:09:24.732Z,1.45
2023-05-22T17:11:51.342Z,1.42
2023-05-22T17:14:17.962Z,1.73
2023-05-22T17:16:44.709Z,1.52
2023-05-22T17:19:11.482Z,1.60
2023-05-22T17:21:38.254Z,1.70
2023-05-22T17:24:05.043Z,1.73
2023-05-22T17:26:33.538Z,1.70
2023-05-22T17:29:00.130Z,1.60
2023-05-22T17:31:27.191Z,1.60
2023-05-22T17:33:53.851Z,1.90
2023-05-22T17:36:20.703Z,1.75
2023-05-22T17:38:47.281Z,1.52
2023-05-22T17:41:13.858Z,1.92
2023-05-22T17:43:40.567Z,2.08
2023-05-22T17:46:07.209Z,2.10
2023-05-22T17:48:34.623Z,2.05
2023-05-22T17:51:01.171Z,2.35
2023-05-22T17:53:32.082Z,1.98
2023-05-22T17:55:58.664Z,2.10
2023-05-22T17:58:25.603Z,1.80
2023-05-22T18:00:52.584Z,1.83
2023-05-22T18:03:20.533Z,1.73
2023-05-22T18:05:48.376Z,2.25
2023-05-22T18:08:15.110Z,2.88
2023-05-22T18:10:41.960Z,2.92
2023-05-22T18:13:08.844Z,2.70
2023-05-22T18:15:35.448Z,3.00
2023-05-22T18:18:03.313Z,2.42
2023-05-22T18:20:30.026Z,3.15
2023-05-22T18:22:56.638Z,3.00
2023-05-22T18:25:23.232Z,3.28
2023-05-22T18:27:49.782Z,3.22
2023-05-22T18:30:17.044Z,3.08
2023-05-22T18:32:43.614Z,3.28
2023-05-22T18:35:10.955Z,3.20
2023-05-22T18:37:37.793Z,2.70
2023-05-22T18:40:07.530Z,3.45
2023-05-22T18:42:34.205Z,2.90
2023-05-22T18:45:00.898Z,2.65
2023-05-22T18:47:27.500Z,3.20
2023-05-22T18:49:54.213Z,3.20
2023-05-22T18:52:20.802Z,4.13
2023-05-22T18:54:47.412Z,2.35
2023-05-22T18:57:14.143Z,3.05
2023-05-22T18:59:41.366Z,2.72
2023-05-22T19:02:08.485Z,3.00
2023-05-22T19:04:35.101Z,3.00
2023-05-22T19:07:01.815Z,3.55
2023-05-22T19:09:28.414Z,3.40
2023-05-22T19:11:54.951Z,3.10
2023-05-22T19:14:21.530Z,3.20
2023-05-22T19:16:48.099Z,3.15
2023-05-22T19:19:14.940Z,3.53
2023-05-22T19:21:41.816Z,3.45
2023-05-22T19:24:08.473Z,4.03
2023-05-22T19:26:35.109Z,3.67
2023-05-22T19:29:01.733Z,3.63
2023-05-22T19:31:29.764Z,3.83
2023-05-22T19:33:56.404Z,3.95
2023-05-22T19:36:23.104Z,2.70
2023-05-22T19:38:50.718Z,2.97
2023-05-22T19:41:19.180Z,2.30
2023-05-22T19:43:45.811Z,2.67
2023-05-22T19:46:12.360Z,2.60
2023-05-22T19:48:38.945Z,2.33
2023-05-22T19:51:06.958Z,3.08
2023-05-22T19:53:34.284Z,3.25
2023-05-22T19:56:03.977Z,2.72
2023-05-22T19:58:30.732Z,2.90
2023-05-22T20:00:57.297Z,2.65
2023-05-22T20:03:24.431Z,3.42
2023-05-22T20:05:53.165Z,3.10
2023-05-22T20:08:21.654Z,3.20
2023-05-22T20:10:48.441Z,3.00
2023-05-22T20:13:15.288Z,2.92
2023-05-22T20:15:42.276Z,3.15
2023-05-22T20:18:10.692Z,3.47
2023-05-22T20:20:37.367Z,3.40
2023-05-22T20:23:03.961Z,3.45
2023-05-22T20:25:30.675Z,3.55
2023-05-22T20:27:57.227Z,4.07
2023-05-22T20:30:23.836Z,3.60
2023-05-22T20:32:50.481Z,3.22
2023-05-22T20:35:20.271Z,3.60
2023-05-22T20:37:47.519Z,3.60
2023-05-22T20:40:14.986Z,3.30
2023-05-22T20:42:46.191Z,3.28
2023-05-22T20:45:15.351Z,4.25
2023-05-22T20:47:43.060Z,3.22
2023-05-22T20:50:10.005Z,4.30
2023-05-22T20:52:37.384Z,3.15
2023-05-22T20:55:04.417Z,4.28
2023-05-22T20:57:31.030Z,3.65
2023-05-22T20:59:58.360Z,3.17
2023-05-22T21:02:26.041Z,3.38
2023-05-22T21:04:53.930Z,3.03
2023-05-22T21:07:20.504Z,2.95
2023-05-22T21:09:47.165Z,3.28
2023-05-22T21:12:13.828Z,2.70
2023-05-22T21:14:40.880Z,2.58
2023-05-22T21:17:07.497Z,2.63
2023-05-22T21:19:34.180Z,2.88
2023-05-22T21:22:00.792Z,3.50
2023-05-22T21:24:27.565Z,3.00
2023-05-22T21:26:54.117Z,2.90
2023-05-22T21:29:20.742Z,3.10
2023-05-22T21:31:47.347Z,3.90
2023-05-22T21:34:14.717Z,3.60
2023-05-22T21:36:41.314Z,3.42
2023-05-22T21:39:08.019Z,4.22
2023-05-22T21:41:34.778Z,3.50
2023-05-22T21:44:01.335Z,3.90
2023-05-22T21:46:27.909Z,3.80
2023-05-22T21:48:54.527Z,4.10
2023-05-22T21:51:21.192Z,3.65
2023-05-22T21:53:47.878Z,3.60
2023-05-22T21:56:14.442Z,4.10
2023-05-22T21:58:40.999Z,4.97
2023-05-22T22:01:07.626Z,3.88
2023-05-22T22:03:34.327Z,4.63
2023-05-22T22:06:00.965Z,4.47
2023-05-22T22:08:28.461Z,3.92
2023-05-22T22:10:55.750Z,4.28
2023-05-22T22:13:22.420Z,4.20
2023-05-22T22:15:48.979Z,4.20
2023-05-22T22:18:15.922Z,4.00
2023-05-22T22:20:45.394Z,4.10
2023-05-22T22:23:12.642Z,4.32
2023-05-22T22:25:39.560Z,4.30
2023-05-22T22:28:07.330Z,3.63
2023-05-22T22:30:35.251Z,3.70
2023-05-22T22:33:02.160Z,3.45
2023-05-22T22:35:28.838Z,3.70
2023-05-22T22:37:55.412Z,3.90
2023-05-22T22:40:22.471Z,4.30
2023-05-22T22:42:49.890Z,4.22
2023-05-22T22:45:16.519Z,4.15
2023-05-22T22:47:43.290Z,4.57
2023-05-22T22:50:10.220Z,4.22
2023-05-22T22:52:37.892Z,4.65
2023-05-22T22:55:06.827Z,4.93
2023-05-22T22:57:33.512Z,4.82
2023-05-22T23:00:00.067Z,4.63
2023-05-22T23:02:26.690Z,4.47
2023-05-22T23:04:53.422Z,4.53
2023-05-22T23:07:20.057Z,5.03
2023-05-22T23:09:46.624Z,4.82
2023-05-22T23:12:13.210Z,4.32
2023-05-22T23:14:39.760Z,4.35
2023-05-22T23:17:06.579Z,4.53
2023-05-22T23:19:33.140Z,4.10
2023-05-22T23:21:59.751Z,4.53
2023-05-22T23:24:26.346Z,3.75
2023-05-22T23:26:53.076Z,4.50
2023-05-22T23:29:19.717Z,4.38
2023-05-22T23:31:47.452Z,4.90
2023-05-22T23:34:14.163Z,4.65
2023-05-22T23:36:41.067Z,4.65
2023-05-22T23:39:07.814Z,4.45
2023-05-22T23:41:35.486Z,3.85
2023-05-22T23:44:02.618Z,4.07
2023-05-22T23:46:29.515Z,4.55
2023-05-22T23:48:56.359Z,3.80
2023-05-22T23:51:22.963Z,4.57
2023-05-22T23:53:49.688Z,4.07
2023-05-22T23:56:17.066Z,4.72
2023-05-22T23:58:43.697Z,4.18
